Time;durP1;ratioP1;P1;durP2;ratioP2;P2;SDS_P1;SDS_P2;PMS_P1;PMS_P2;Temp;Humidity;BMP_temperature;BMP_pressure;BME280_temperature;BME280_humidity;BME280_pressure;Samples;Min_cycle;Max_cycle;Signal;HPM_P1;HPM_P2
2022/12/07 00:00:45;;;;;;;25.00;16.08;;;3.50;99.90;;;;;;2063082;28;20077;-67
2022/12/07 00:01:46;;;;;;;26.00;16.17;;;3.50;99.90;;;;;;2055779;28;20081;-67
2022/12/07 00:02:47;;;;;;;22.77;15.38;;;3.40;99.90;;;;;;2055859;28;20751;-69
2022/12/07 00:03:50;;;;;;;23.67;15.57;;;3.40;99.90;;;;;;2055518;28;20111;-68
2022/12/07 00:04:51;;;;;;;27.80;15.80;;;3.50;99.90;;;;;;2055701;28;20498;-69
2022/12/07 00:05:52;;;;;;;23.05;14.65;;;3.50;99.90;;;;;;2054746;28;20125;-68
2022/12/07 00:06:53;;;;;;;24.05;15.30;;;3.40;99.90;;;;;;2054895;28;20026;-69
2022/12/07 00:07:53;;;;;;;23.52;15.13;;;3.40;99.90;;;;;;2055560;28;20077;-68
2022/12/07 00:08:54;;;;;;;23.65;15.60;;;3.40;99.90;;;;;;2055531;28;20433;-68
2022/12/07 00:09:55;;;;;;;25.63;15.93;;;3.40;99.90;;;;;;2055532;28;20473;-68
2022/12/07 00:11:10;;;;;;;24.77;16.05;;;3.40;99.90;;;;;;2055668;28;20023;-69
2022/12/07 00:12:11;;;;;;;23.90;15.40;;;3.40;99.90;;;;;;2055743;28;20166;-69
2022/12/07 00:13:12;;;;;;;24.20;15.20;;;3.40;99.90;;;;;;2055053;28;20052;-69
2022/12/07 00:14:14;;;;;;;24.48;15.50;;;3.40;99.90;;;;;;2054980;28;20396;-67
2022/12/07 00:15:15;;;;;;;25.45;16.45;;;3.40;99.90;;;;;;2054842;28;20636;-68
2022/12/07 00:16:17;;;;;;;23.70;15.13;;;3.40;99.90;;;;;;2055242;28;20038;-68
2022/12/07 00:17:18;;;;;;;23.30;15.10;;;3.40;99.90;;;;;;2056424;28;20144;-68
2022/12/07 00:18:21;;;;;;;25.48;15.40;;;3.40;99.90;;;;;;2055551;28;20034;-68
2022/12/07 00:19:22;;;;;;;26.38;15.80;;;3.40;99.90;;;;;;2055693;28;20027;-68
2022/12/07 00:20:23;;;;;;;23.58;15.10;;;3.40;99.90;;;;;;2055570;28;20026;-68
2022/12/07 00:21:29;;;;;;;26.50;16.02;;;3.40;99.90;;;;;;2055816;28;20054;-70
2022/12/07 00:22:30;;;;;;;23.95;15.32;;;3.40;99.90;;;;;;2055344;28;20027;-69
2022/12/07 00:23:32;;;;;;;24.35;15.75;;;3.40;99.90;;;;;;2055246;28;20102;-68
2022/12/07 00:24:36;;;;;;;25.10;15.65;;;3.40;99.90;;;;;;2055343;28;20039;-70
2022/12/07 00:25:37;;;;;;;24.70;16.05;;;3.40;99.90;;;;;;2055239;28;20037;-69
2022/12/07 00:26:40;;;;;;;25.58;15.70;;;3.40;99.90;;;;;;2055239;28;20026;-69
2022/12/07 00:27:41;;;;;;;26.63;16.65;;;3.40;99.90;;;;;;2055394;28;20038;-68
2022/12/07 00:28:52;;;;;;;26.10;15.95;;;3.40;99.90;;;;;;2061759;28;20105;-69
2022/12/07 00:29:52;;;;;;;25.05;15.10;;;3.40;99.90;;;;;;2061511;28;20073;-69
2022/12/07 00:31:06;;;;;;;25.17;15.77;;;3.40;99.90;;;;;;2054897;28;20488;-69
2022/12/07 00:32:07;;;;;;;26.77;15.70;;;3.40;99.90;;;;;;2054908;28;20057;-69
2022/12/07 00:33:08;;;;;;;24.50;15.77;;;3.40;99.90;;;;;;2055016;28;20897;-70
2022/12/07 00:34:14;;;;;;;24.23;14.73;;;3.40;99.90;;;;;;2055263;28;20030;-69
2022/12/07 00:35:15;;;;;;;24.52;15.35;;;3.40;99.90;;;;;;2055445;28;20031;-69
2022/12/07 00:36:18;;;;;;;25.85;15.98;;;3.40;99.90;;;;;;2055110;28;20113;-70
2022/12/07 00:37:19;;;;;;;25.77;15.93;;;3.40;99.90;;;;;;2055323;28;20735;-68
2022/12/07 00:38:19;;;;;;;25.25;15.32;;;3.40;99.90;;;;;;2054794;28;20046;-68
2022/12/07 00:39:20;;;;;;;24.25;15.10;;;3.30;99.90;;;;;;2054767;28;20548;-68
2022/12/07 00:40:21;;;;;;;24.83;15.27;;;3.30;99.90;;;;;;2062760;28;20120;-69
2022/12/07 00:41:23;;;;;;;25.15;15.52;;;3.30;99.90;;;;;;2062860;28;20588;-68
2022/12/07 00:42:24;;;;;;;27.52;15.48;;;3.30;99.90;;;;;;2055612;28;20038;-69
2022/12/07 00:43:25;;;;;;;24.25;14.88;;;3.40;99.90;;;;;;2056296;28;20113;-68
2022/12/07 00:44:26;;;;;;;26.15;15.45;;;3.40;99.90;;;;;;2056446;28;20042;-68
2022/12/07 00:45:26;;;;;;;24.00;15.15;;;3.40;99.90;;;;;;2056129;28;20039;-68
2022/12/07 00:46:27;;;;;;;24.83;15.15;;;3.40;99.90;;;;;;2055842;28;20038;-69
2022/12/07 00:47:28;;;;;;;24.23;14.93;;;3.40;99.90;;;;;;2055764;28;20035;-70
2022/12/07 00:48:29;;;;;;;24.58;15.20;;;3.40;99.90;;;;;;2055541;28;20026;-69
2022/12/07 00:49:30;;;;;;;24.45;15.25;;;3.40;99.90;;;;;;2055086;28;20023;-69
2022/12/07 00:50:30;;;;;;;27.48;15.40;;;3.40;99.90;;;;;;2046811;29;20058;-69
2022/12/07 00:51:31;;;;;;;25.23;16.13;;;3.40;99.90;;;;;;2055345;28;20081;-69
2022/12/07 00:52:32;;;;;;;24.05;14.82;;;3.40;99.90;;;;;;2055735;28;20053;-69
2022/12/07 00:53:37;;;;;;;24.40;15.75;;;3.40;99.90;;;;;;2055988;28;20086;-69
2022/12/07 00:54:37;;;;;;;25.40;15.43;;;3.40;99.90;;;;;;2055899;28;20030;-69
2022/12/07 00:55:38;;;;;;;25.15;15.07;;;3.40;99.90;;;;;;2055427;28;20066;-68
2022/12/07 00:56:39;;;;;;;25.40;15.25;;;3.50;99.90;;;;;;2055549;28;20038;-68
2022/12/07 00:57:39;;;;;;;24.77;15.93;;;3.40;99.90;;;;;;2055652;28;20034;-68
2022/12/07 00:58:40;;;;;;;25.33;15.93;;;3.40;99.90;;;;;;2055508;28;20126;-68
2022/12/07 00:59:41;;;;;;;25.58;15.50;;;3.50;99.90;;;;;;2055292;28;20038;-70
2022/12/07 01:00:42;;;;;;;24.65;15.77;;;3.50;99.90;;;;;;2055285;28;20058;-68
2022/12/07 01:01:43;;;;;;;26.52;15.60;;;3.50;99.90;;;;;;2055415;28;20027;-67
2022/12/07 01:02:44;;;;;;;27.67;15.80;;;3.50;99.90;;;;;;2054959;28;20050;-69
2022/12/07 01:03:45;;;;;;;26.75;15.85;;;3.50;99.90;;;;;;2054461;28;20023;-68
2022/12/07 01:04:45;;;;;;;24.85;15.60;;;3.50;99.90;;;;;;2054715;28;20022;-69
2022/12/07 01:05:54;;;;;;;28.00;16.38;;;3.50;99.90;;;;;;2055444;28;20125;-67
2022/12/07 01:06:54;;;;;;;27.52;16.40;;;3.50;99.90;;;;;;2055829;28;20058;-67
2022/12/07 01:07:55;;;;;;;26.08;16.02;;;3.50;99.90;;;;;;2054980;28;20481;-68
2022/12/07 01:08:56;;;;;;;26.40;15.43;;;3.50;99.90;;;;;;2055071;28;20046;-67
2022/12/07 01:09:57;;;;;;;25.83;16.08;;;3.50;99.90;;;;;;2055566;28;20031;-68
2022/12/07 01:11:01;;;;;;;24.63;15.45;;;3.50;99.90;;;;;;2055739;28;20030;-68
2022/12/07 01:12:02;;;;;;;25.90;15.52;;;3.50;99.90;;;;;;2055748;28;20035;-66
2022/12/07 01:13:03;;;;;;;24.98;16.40;;;3.50;99.90;;;;;;2056367;28;20066;-68
2022/12/07 01:14:04;;;;;;;26.65;16.23;;;3.50;99.90;;;;;;2054113;28;20038;-69
2022/12/07 01:15:05;;;;;;;26.48;15.68;;;3.50;99.90;;;;;;2054015;28;20035;-70
2022/12/07 01:16:07;;;;;;;27.98;16.10;;;3.50;99.90;;;;;;2053673;28;20122;-68
2022/12/07 01:17:08;;;;;;;25.55;15.65;;;3.50;99.90;;;;;;2054511;28;20034;-69
2022/12/07 01:18:09;;;;;;;26.75;15.18;;;3.50;99.90;;;;;;2053988;28;20101;-68
2022/12/07 01:19:10;;;;;;;25.90;15.60;;;3.60;99.90;;;;;;2054162;28;20093;-68
2022/12/07 01:20:11;;;;;;;27.85;16.67;;;3.60;99.90;;;;;;2054202;28;20121;-68
2022/12/07 01:21:30;;;;;;;28.38;16.38;;;3.60;99.90;;;;;;2054603;28;20651;-68
2022/12/07 01:22:30;;;;;;;30.60;16.80;;;3.50;99.90;;;;;;2055106;28;20030;-69
2022/12/07 01:23:32;;;;;;;27.05;15.70;;;3.50;99.90;;;;;;2055105;28;20018;-68
2022/12/07 01:24:33;;;;;;;27.08;16.40;;;3.50;99.90;;;;;;2054270;28;20102;-68
2022/12/07 01:25:33;;;;;;;24.88;15.55;;;3.50;99.90;;;;;;2054854;28;20027;-68
2022/12/07 01:26:34;;;;;;;27.63;15.48;;;3.50;99.90;;;;;;2054780;28;20118;-67
2022/12/07 01:27:35;;;;;;;25.27;16.17;;;3.50;99.90;;;;;;2055029;28;20104;-68
2022/12/07 01:28:36;;;;;;;28.48;16.88;;;3.50;99.90;;;;;;2055135;28;20086;-68
2022/12/07 01:29:37;;;;;;;26.88;15.90;;;3.50;99.90;;;;;;2054389;28;20394;-67
2022/12/07 01:30:38;;;;;;;27.48;16.02;;;3.50;99.90;;;;;;2054340;28;20113;-68
2022/12/07 01:31:39;;;;;;;27.85;16.40;;;3.50;99.90;;;;;;2062415;28;20022;-67
2022/12/07 01:32:39;;;;;;;26.23;15.40;;;3.50;99.90;;;;;;2055672;28;20675;-68
2022/12/07 01:33:42;;;;;;;28.35;16.77;;;3.50;99.90;;;;;;2062540;28;20047;-69
2022/12/07 01:34:42;;;;;;;25.15;15.50;;;3.50;99.90;;;;;;2054118;28;20567;-68
2022/12/07 01:35:43;;;;;;;27.77;16.23;;;3.50;99.90;;;;;;2054007;28;20080;-69
2022/12/07 01:36:43;;;;;;;28.13;16.48;;;3.60;99.90;;;;;;2054980;28;20061;-68
2022/12/07 01:37:44;;;;;;;29.42;16.33;;;3.60;99.90;;;;;;2054754;28;20030;-69
2022/12/07 01:38:46;;;;;;;26.17;15.93;;;3.60;99.90;;;;;;2055199;28;20026;-69
2022/12/07 01:39:51;;;;;;;23.77;15.27;;;3.50;99.90;;;;;;2056692;28;20023;-67
2022/12/07 01:40:56;;;;;;;27.52;16.17;;;3.50;99.90;;;;;;2056634;28;20029;-69
2022/12/07 01:41:56;;;;;;;26.85;16.15;;;3.60;99.90;;;;;;2056767;28;20031;-68
2022/12/07 01:42:57;;;;;;;24.77;15.45;;;3.60;99.90;;;;;;2064119;28;20049;-68
2022/12/07 01:44:08;;;;;;;25.33;14.93;;;3.50;99.90;;;;;;2055865;28;20037;-68
2022/12/07 01:45:18;;;;;;;28.58;16.63;;;3.60;99.90;;;;;;2055940;28;20045;-67
2022/12/07 01:46:19;;;;;;;26.63;16.30;;;3.60;99.90;;;;;;2055613;28;20022;-67
2022/12/07 01:47:19;;;;;;;26.23;16.02;;;3.60;99.90;;;;;;2047883;28;20024;-67
2022/12/07 01:48:37;;;;;;;25.83;15.90;;;3.60;99.90;;;;;;2048004;28;20023;-67
2022/12/07 01:49:45;;;;;;;28.83;16.52;;;3.60;99.90;;;;;;2056426;28;20126;-67
2022/12/07 01:50:50;;;;;;;27.17;15.98;;;3.60;99.90;;;;;;2056554;28;20077;-68
2022/12/07 01:51:54;;;;;;;25.50;15.55;;;3.60;99.90;;;;;;2063809;28;20126;-68
2022/12/07 01:52:57;;;;;;;27.77;16.02;;;3.50;99.90;;;;;;2063685;28;20030;-68
2022/12/07 01:53:59;;;;;;;26.15;15.68;;;3.50;99.90;;;;;;2056576;28;20038;-68
2022/12/07 01:55:04;;;;;;;25.73;15.93;;;3.50;99.90;;;;;;2056564;28;20596;-67
2022/12/07 01:56:07;;;;;;;27.08;16.17;;;3.50;99.90;;;;;;2063743;28;20133;-67
2022/12/07 01:57:08;;;;;;;27.55;16.23;;;3.50;99.90;;;;;;2063676;28;20274;-67
2022/12/07 01:58:10;;;;;;;26.75;16.42;;;3.50;99.90;;;;;;2063875;28;20065;-68
2022/12/07 01:59:11;;;;;;;27.50;16.17;;;3.50;99.90;;;;;;2063780;28;20026;-67
2022/12/07 02:00:13;;;;;;;24.35;15.00;;;3.50;99.90;;;;;;2056327;28;20031;-68
2022/12/07 02:01:14;;;;;;;23.90;14.75;;;3.50;99.90;;;;;;2056706;28;20035;-67
2022/12/07 02:02:22;;;;;;;24.60;14.75;;;3.50;99.90;;;;;;2056506;28;20031;-67
2022/12/07 02:03:35;;;;;;;24.77;15.02;;;3.50;99.90;;;;;;2055934;28;20034;-67
2022/12/07 02:04:36;;;;;;;23.90;14.38;;;3.50;99.90;;;;;;2056450;28;20027;-68
2022/12/07 02:05:40;;;;;;;22.75;14.27;;;3.50;99.90;;;;;;2056412;28;20092;-68
2022/12/07 02:06:42;;;;;;;24.35;14.57;;;3.50;99.90;;;;;;2056663;28;20668;-68
2022/12/07 02:07:47;;;;;;;22.40;13.93;;;3.50;99.90;;;;;;2055734;28;20568;-67
2022/12/07 02:08:49;;;;;;;24.77;14.48;;;3.50;99.90;;;;;;2048316;28;20046;-68
2022/12/07 02:09:49;;;;;;;22.75;14.38;;;3.50;99.90;;;;;;2056088;28;20524;-68
2022/12/07 02:10:50;;;;;;;23.60;14.27;;;3.50;99.90;;;;;;2056372;28;20019;-68
2022/12/07 02:11:52;;;;;;;20.05;13.30;;;3.50;99.90;;;;;;2056473;28;20026;-67
2022/12/07 02:13:02;;;;;;;24.00;14.85;;;3.50;99.90;;;;;;2056470;28;20026;-68
2022/12/07 02:14:03;;;;;;;22.50;14.07;;;3.50;99.90;;;;;;2055494;28;20034;-68
2022/12/07 02:15:04;;;;;;;22.95;14.77;;;3.50;99.90;;;;;;2055735;28;20121;-68
2022/12/07 02:16:11;;;;;;;23.48;14.32;;;3.40;99.90;;;;;;2056183;28;20053;-68
2022/12/07 02:17:24;;;;;;;23.02;14.43;;;3.40;99.90;;;;;;2055902;28;20035;-68
2022/12/07 02:18:40;;;;;;;22.50;14.32;;;3.40;99.90;;;;;;2055653;28;20129;-68
2022/12/07 02:19:59;;;;;;;20.63;13.32;;;3.30;99.90;;;;;;2056289;28;20785;-67
2022/12/07 02:21:08;;;;;;;21.95;13.75;;;3.20;99.90;;;;;;2049971;28;20035;-69
2022/12/07 02:22:11;;;;;;;21.05;13.90;;;3.20;99.90;;;;;;2056570;28;20066;-67
2022/12/07 02:23:29;;;;;;;22.33;14.57;;;3.10;99.90;;;;;;2056373;28;20034;-69
2022/12/07 02:24:57;;;;;;;20.90;13.52;;;3.00;99.90;;;;;;2056259;28;20121;-68
2022/12/07 02:26:19;;;;;;;22.05;13.65;;;3.00;99.90;;;;;;2048187;28;20023;-68
2022/12/07 02:27:33;;;;;;;22.55;13.70;;;2.90;99.90;;;;;;2048470;29;20592;-67
2022/12/07 02:28:39;;;;;;;22.00;13.65;;;2.90;99.90;;;;;;2048370;29;20576;-67
2022/12/07 02:30:00;;;;;;;23.25;14.10;;;2.80;99.90;;;;;;2048486;28;20035;-67
2022/12/07 02:31:22;;;;;;;21.15;13.45;;;2.80;99.90;;;;;;2048497;29;20042;-67
2022/12/07 02:32:44;;;;;;;21.88;13.50;;;2.70;99.90;;;;;;2048458;29;20035;-68
2022/12/07 02:34:26;;;;;;;21.08;12.63;;;2.70;99.90;;;;;;2048480;28;20069;-68
2022/12/07 02:36:02;;;;;;;19.58;12.50;;;2.60;99.90;;;;;;2051878;28;20058;-68
2022/12/07 02:37:27;;;;;;;21.13;12.93;;;2.60;99.90;;;;;;2056186;28;20546;-68
2022/12/07 02:38:34;;;;;;;20.27;12.88;;;2.60;99.90;;;;;;2056021;28;20441;-67
2022/12/07 02:39:43;;;;;;;19.33;12.35;;;2.50;99.90;;;;;;2063679;28;20118;-68
2022/12/07 02:40:55;;;;;;;20.95;12.75;;;2.50;99.90;;;;;;2062313;28;20034;-68
2022/12/07 02:42:09;;;;;;;19.55;11.98;;;2.50;99.90;;;;;;2056556;28;20046;-68
2022/12/07 02:43:23;;;;;;;20.00;12.18;;;2.40;99.90;;;;;;2056123;28;20031;-68
2022/12/07 02:44:27;;;;;;;19.95;12.48;;;2.40;99.90;;;;;;2055011;28;20521;-68
2022/12/07 02:45:30;;;;;;;19.17;11.80;;;2.40;99.90;;;;;;2055397;28;20045;-68
2022/12/07 02:46:41;;;;;;;19.65;12.07;;;2.40;99.90;;;;;;2055848;28;20390;-68
2022/12/07 02:47:44;;;;;;;19.95;12.20;;;2.30;99.90;;;;;;2056240;28;20069;-68
2022/12/07 02:48:47;;;;;;;19.60;12.30;;;2.30;99.90;;;;;;2056070;28;20200;-68
2022/12/07 02:49:49;;;;;;;18.83;12.13;;;2.30;99.90;;;;;;2055944;28;20492;-67
2022/12/07 02:50:54;;;;;;;18.05;11.77;;;2.30;99.90;;;;;;2056093;28;20698;-67
2022/12/07 02:51:54;;;;;;;19.80;12.25;;;2.30;99.90;;;;;;2055891;28;20027;-67
2022/12/07 02:52:56;;;;;;;19.23;12.32;;;2.30;99.90;;;;;;2056190;28;20533;-68
2022/12/07 02:53:56;;;;;;;19.20;12.25;;;2.30;99.90;;;;;;2056108;28;20038;-69
2022/12/07 02:54:57;;;;;;;20.88;12.45;;;2.30;99.90;;;;;;2056122;28;20113;-69
2022/12/07 02:56:07;;;;;;;19.83;12.68;;;2.30;99.90;;;;;;2055165;28;20030;-68
2022/12/07 02:57:32;;;;;;;19.70;12.18;;;2.30;99.90;;;;;;2055817;28;20030;-68
2022/12/07 02:58:46;;;;;;;21.95;13.02;;;2.30;99.90;;;;;;2056110;28;20035;-69
2022/12/07 03:00:05;;;;;;;20.02;12.30;;;2.30;99.90;;;;;;2056161;28;20039;-69
2022/12/07 03:01:17;;;;;;;19.40;12.27;;;2.40;99.90;;;;;;2056218;28;20034;-69
2022/12/07 03:02:26;;;;;;;21.17;13.13;;;2.40;99.90;;;;;;2056260;28;20049;-69
2022/12/07 03:03:28;;;;;;;21.88;13.55;;;2.40;99.90;;;;;;2055952;28;20090;-69
2022/12/07 03:04:53;;;;;;;22.98;13.93;;;2.40;99.90;;;;;;2056110;28;20030;-68
2022/12/07 03:06:03;;;;;;;21.48;13.57;;;2.40;99.90;;;;;;2061263;28;20734;-68
2022/12/07 03:07:32;;;;;;;19.58;12.50;;;2.50;99.90;;;;;;2055455;28;20023;-69
2022/12/07 03:08:48;;;;;;;20.42;12.63;;;2.50;99.90;;;;;;2053542;28;20030;-68
2022/12/07 03:10:01;;;;;;;21.23;12.88;;;2.50;99.90;;;;;;2056016;28;20038;-68
2022/12/07 03:11:08;;;;;;;21.80;13.63;;;2.50;99.90;;;;;;2056002;28;20034;-68
2022/12/07 03:12:17;;;;;;;20.70;13.23;;;2.50;99.90;;;;;;2056026;28;20039;-69
2022/12/07 03:13:37;;;;;;;20.98;13.00;;;2.60;99.90;;;;;;2056426;28;20035;-68
2022/12/07 03:14:46;;;;;;;22.73;13.73;;;2.60;99.90;;;;;;2056091;28;20062;-69
2022/12/07 03:16:04;;;;;;;19.58;12.77;;;2.60;99.90;;;;;;2055832;28;20106;-68
2022/12/07 03:17:13;;;;;;;19.95;12.25;;;2.70;99.90;;;;;;2049124;28;20129;-70
2022/12/07 03:18:20;;;;;;;20.02;12.57;;;2.70;99.90;;;;;;2055798;28;20117;-69
2022/12/07 03:19:24;;;;;;;19.48;12.50;;;2.70;99.90;;;;;;2068620;28;20516;-68
2022/12/07 03:20:27;;;;;;;22.38;12.90;;;2.70;99.90;;;;;;2072017;28;20038;-68
2022/12/07 03:21:42;;;;;;;17.40;11.70;;;2.60;99.90;;;;;;2056685;28;20118;-69
2022/12/07 03:22:45;;;;;;;21.20;12.95;;;2.60;99.90;;;;;;2056729;28;20129;-68
2022/12/07 03:23:51;;;;;;;19.52;12.63;;;2.60;99.90;;;;;;2057451;28;20034;-69
2022/12/07 03:24:56;;;;;;;20.60;13.20;;;2.60;99.90;;;;;;2056932;28;20015;-69
2022/12/07 03:26:00;;;;;;;21.42;13.48;;;2.50;99.90;;;;;;2057747;28;20114;-69
2022/12/07 03:27:13;;;;;;;23.67;14.55;;;2.50;99.90;;;;;;2056567;28;20085;-68
2022/12/07 03:28:17;;;;;;;22.92;13.80;;;2.50;99.90;;;;;;2056076;28;20090;-69
2022/12/07 03:29:28;;;;;;;21.65;13.75;;;2.40;99.90;;;;;;2056055;28;20051;-69
2022/12/07 03:30:34;;;;;;;;;;;2.40;99.90;;;;;;2063749;28;20034;-69
2022/12/07 03:31:41;;;;;;;23.50;14.23;;;2.40;99.90;;;;;;2062684;28;20443;-69
2022/12/07 03:32:59;;;;;;;22.35;13.93;;;2.30;99.90;;;;;;2055922;28;20529;-68
2022/12/07 03:34:08;;;;;;;25.77;15.70;;;2.30;99.90;;;;;;2056055;28;20038;-70
2022/12/07 03:35:21;;;;;;;25.58;15.70;;;2.30;99.90;;;;;;2063265;28;20026;-68
2022/12/07 03:36:40;;;;;;;24.90;15.45;;;2.20;99.90;;;;;;2061547;28;20040;-69
2022/12/07 03:37:51;;;;;;;25.45;16.17;;;2.20;99.90;;;;;;2055590;28;20027;-68
2022/12/07 03:39:26;;;;;;;26.15;16.40;;;2.20;99.90;;;;;;2055027;28;20042;-67
2022/12/07 03:40:52;;;;;;;28.77;16.52;;;2.20;99.90;;;;;;2043744;28;20043;-69
2022/12/07 03:41:54;;;;;;;26.83;16.30;;;2.30;99.90;;;;;;2048221;28;20019;-69
2022/12/07 03:42:55;;;;;;;28.02;16.33;;;2.30;99.90;;;;;;2055774;28;20023;-68
2022/12/07 03:43:57;;;;;;;27.95;16.90;;;2.30;99.90;;;;;;2055563;28;20061;-68
2022/12/07 03:45:00;;;;;;;29.23;17.00;;;2.40;99.90;;;;;;2055004;28;20490;-68
2022/12/07 03:46:40;;;;;;;28.15;16.63;;;2.40;99.90;;;;;;2054782;28;20070;-68
2022/12/07 03:47:54;;;;;;;27.83;16.77;;;2.40;99.90;;;;;;2055868;28;20629;-67
2022/12/07 03:49:09;;;;;;;27.33;16.65;;;2.40;99.90;;;;;;2055789;28;20015;-68
2022/12/07 03:50:19;;;;;;;27.05;17.27;;;2.30;99.90;;;;;;2055781;28;20058;-67
2022/12/07 03:51:55;;;;;;;28.73;17.92;;;2.30;99.90;;;;;;2055284;28;20109;-67
2022/12/07 03:53:03;;;;;;;29.70;17.73;;;2.30;99.90;;;;;;2048626;28;20529;-68
2022/12/07 03:54:15;;;;;;;28.52;17.50;;;2.30;99.90;;;;;;2057684;28;20030;-68
2022/12/07 03:55:29;;;;;;;28.98;17.30;;;2.30;99.90;;;;;;2057125;28;20085;-68
2022/12/07 03:56:30;;;;;;;28.40;17.33;;;2.30;99.90;;;;;;2056086;28;20043;-69
2022/12/07 03:57:34;;;;;;;28.15;17.52;;;2.30;99.90;;;;;;2055957;28;20104;-67
2022/12/07 03:58:35;;;;;;;26.50;16.40;;;2.30;99.90;;;;;;2055750;28;20089;-69
2022/12/07 03:59:38;;;;;;;28.73;17.50;;;2.30;99.90;;;;;;2055447;28;20043;-69
2022/12/07 04:00:40;;;;;;;26.00;16.40;;;2.30;99.90;;;;;;2054959;28;20039;-68
2022/12/07 04:01:50;;;;;;;28.42;17.60;;;2.30;99.90;;;;;;2054424;28;20573;-68
2022/12/07 04:02:52;;;;;;;26.70;17.08;;;2.30;99.90;;;;;;2048091;28;20054;-68
2022/12/07 04:03:53;;;;;;;29.55;17.15;;;2.30;99.90;;;;;;2055526;28;20538;-68
2022/12/07 04:04:55;;;;;;;29.17;17.67;;;2.30;99.90;;;;;;2054886;28;20038;-68
2022/12/07 04:05:57;;;;;;;27.23;16.65;;;2.30;99.90;;;;;;2054702;28;20015;-68
2022/12/07 04:06:58;;;;;;;26.77;16.40;;;2.30;99.90;;;;;;2055755;28;20030;-68
2022/12/07 04:07:59;;;;;;;27.63;16.95;;;2.30;99.90;;;;;;2055626;28;20026;-68
2022/12/07 04:09:00;;;;;;;25.17;16.20;;;2.30;99.90;;;;;;2055812;28;20030;-68
2022/12/07 04:10:00;;;;;;;26.98;15.95;;;2.40;99.90;;;;;;2055562;28;20053;-69
2022/12/07 04:11:01;;;;;;;25.02;15.63;;;2.40;99.90;;;;;;2055443;28;20034;-68
2022/12/07 04:12:02;;;;;;;25.98;16.27;;;2.40;99.90;;;;;;2055419;28;20030;-68
2022/12/07 04:13:03;;;;;;;27.05;16.45;;;2.40;99.90;;;;;;2055601;28;20081;-69
2022/12/07 04:14:18;;;;;;;26.38;16.40;;;2.40;99.90;;;;;;2055468;28;20123;-68
2022/12/07 04:15:19;;;;;;;26.45;16.23;;;2.40;99.90;;;;;;2055446;28;20045;-69
2022/12/07 04:16:20;;;;;;;26.27;16.45;;;2.30;99.90;;;;;;2055156;28;20034;-67
2022/12/07 04:17:20;;;;;;;28.60;17.08;;;2.40;99.90;;;;;;2055440;28;20027;-69
2022/12/07 04:18:21;;;;;;;25.92;16.55;;;2.40;99.90;;;;;;2055507;28;20529;-70
2022/12/07 04:19:27;;;;;;;30.17;17.38;;;2.30;99.90;;;;;;2054892;28;20497;-67
2022/12/07 04:20:28;;;;;;;28.58;17.08;;;2.30;99.90;;;;;;2054836;28;20066;-67
2022/12/07 04:21:28;;;;;;;27.48;16.80;;;2.30;99.90;;;;;;2055402;28;20406;-67
2022/12/07 04:22:29;;;;;;;26.67;16.17;;;2.30;99.90;;;;;;2055410;28;20027;-68
2022/12/07 04:23:30;;;;;;;30.02;18.00;;;2.20;99.90;;;;;;2055447;28;20413;-69
2022/12/07 04:24:31;;;;;;;31.27;18.38;;;2.20;99.90;;;;;;2054678;28;20031;-69
2022/12/07 04:25:32;;;;;;;28.92;17.42;;;2.20;99.90;;;;;;2054774;28;20031;-69
2022/12/07 04:26:33;;;;;;;29.98;18.10;;;2.20;99.90;;;;;;2055365;28;20085;-66
2022/12/07 04:27:34;;;;;;;29.48;17.75;;;2.20;99.90;;;;;;2055540;28;20057;-67
2022/12/07 04:28:34;;;;;;;28.17;16.80;;;2.20;99.90;;;;;;2055475;28;20065;-69
2022/12/07 04:29:35;;;;;;;30.00;18.17;;;2.20;99.90;;;;;;2055018;28;20031;-69
2022/12/07 04:30:36;;;;;;;29.85;18.00;;;2.10;99.90;;;;;;2054969;28;20113;-68
2022/12/07 04:31:37;;;;;;;29.75;17.75;;;2.10;99.90;;;;;;2055551;28;20442;-68
2022/12/07 04:32:38;;;;;;;28.92;16.77;;;2.10;99.90;;;;;;2055470;28;20031;-68
2022/12/07 04:33:38;;;;;;;32.10;17.88;;;2.10;99.90;;;;;;2055005;28;20051;-67
2022/12/07 04:34:39;;;;;;;27.88;16.90;;;2.10;99.90;;;;;;2055255;28;20030;-69
2022/12/07 04:35:43;;;;;;;26.58;16.30;;;2.00;99.90;;;;;;2055001;28;20015;-68
2022/12/07 04:36:44;;;;;;;26.67;16.58;;;2.00;99.90;;;;;;2055100;28;20117;-69
2022/12/07 04:37:45;;;;;;;30.33;17.35;;;2.00;99.90;;;;;;2055335;28;20025;-68
2022/12/07 04:38:46;;;;;;;29.98;16.88;;;2.00;99.90;;;;;;2055247;28;20470;-68
2022/12/07 04:39:47;;;;;;;26.95;16.58;;;2.00;99.90;;;;;;2054699;28;20090;-67
2022/12/07 04:40:47;;;;;;;30.13;17.17;;;2.00;99.90;;;;;;2054924;28;20031;-68
2022/12/07 04:41:48;;;;;;;29.77;18.40;;;2.10;99.90;;;;;;2055249;28;20031;-68
2022/12/07 04:42:49;;;;;;;29.40;17.02;;;2.10;99.90;;;;;;2055423;28;20019;-68
2022/12/07 04:43:50;;;;;;;28.33;16.38;;;2.10;99.90;;;;;;2055149;28;20046;-68
2022/12/07 04:44:50;;;;;;;26.08;16.27;;;2.10;99.90;;;;;;2055277;28;20098;-68
2022/12/07 04:45:51;;;;;;;25.42;15.70;;;2.10;99.90;;;;;;2055297;28;20051;-68
2022/12/07 04:46:53;;;;;;;26.45;15.93;;;2.00;99.90;;;;;;2046378;29;20486;-68
2022/12/07 04:47:53;;;;;;;24.63;14.85;;;2.00;99.90;;;;;;2046778;28;20429;-67
2022/12/07 04:48:55;;;;;;;24.52;14.93;;;2.00;99.90;;;;;;2055319;28;20039;-68
2022/12/07 04:49:55;;;;;;;24.88;15.40;;;2.00;99.90;;;;;;2055406;28;20029;-68
2022/12/07 04:50:56;;;;;;;25.65;15.13;;;2.00;99.90;;;;;;2055394;28;20082;-67
2022/12/07 04:51:57;;;;;;;23.48;14.40;;;1.90;99.90;;;;;;2055278;28;20050;-68
2022/12/07 04:52:58;;;;;;;22.30;13.80;;;1.90;99.90;;;;;;2055357;28;20533;-69
2022/12/07 04:53:58;;;;;;;25.42;14.43;;;1.90;99.90;;;;;;2055311;28;20027;-68
2022/12/07 04:54:59;;;;;;;23.85;14.98;;;1.90;99.90;;;;;;2055328;28;20556;-68
2022/12/07 04:56:00;;;;;;;24.13;14.07;;;1.80;99.90;;;;;;2055104;28;20592;-69
2022/12/07 04:57:01;;;;;;;23.27;13.95;;;1.80;99.90;;;;;;2055234;28;20070;-68
2022/12/07 04:58:02;;;;;;;23.15;14.40;;;1.80;99.90;;;;;;2055080;28;20035;-68
2022/12/07 04:59:06;;;;;;;22.85;14.20;;;1.80;99.90;;;;;;2055209;28;20035;-67
2022/12/07 05:00:07;;;;;;;22.90;13.95;;;1.80;99.90;;;;;;2055263;28;20073;-69
2022/12/07 05:01:08;;;;;;;25.80;15.07;;;1.70;99.90;;;;;;2055189;28;20023;-67
2022/12/07 05:02:09;;;;;;;26.85;15.23;;;1.70;99.90;;;;;;2055236;28;20063;-68
2022/12/07 05:03:10;;;;;;;28.88;16.50;;;1.80;99.90;;;;;;2055389;28;20034;-67
2022/12/07 05:04:11;;;;;;;26.45;15.57;;;1.70;99.90;;;;;;2055273;28;20038;-67
2022/12/07 05:05:11;;;;;;;25.45;15.57;;;1.70;99.90;;;;;;2055195;28;20026;-69
2022/12/07 05:06:13;;;;;;;29.20;16.55;;;1.70;99.90;;;;;;2054462;28;20474;-67
2022/12/07 05:07:13;;;;;;;25.70;14.77;;;1.70;99.90;;;;;;2054640;28;20034;-67
2022/12/07 05:08:14;;;;;;;25.25;14.80;;;1.70;99.90;;;;;;2055074;28;20053;-68
2022/12/07 05:09:15;;;;;;;26.75;14.90;;;1.70;99.90;;;;;;2055110;28;20429;-69
2022/12/07 05:10:16;;;;;;;25.15;15.00;;;1.70;99.90;;;;;;2055183;28;20133;-68
2022/12/07 05:12:36;;;;;;;26.40;15.02;;;1.80;99.90;;;;;;2055253;28;20035;-69
2022/12/07 05:13:36;;;;;;;26.42;15.13;;;1.80;99.90;;;;;;2068130;28;20047;-68
2022/12/07 05:14:37;;;;;;;25.02;14.75;;;1.80;99.90;;;;;;2064045;28;20026;-69
2022/12/07 05:15:38;;;;;;;26.35;15.45;;;1.80;99.90;;;;;;2054983;28;20047;-69
2022/12/07 05:16:39;;;;;;;25.70;14.90;;;1.90;99.90;;;;;;2055106;28;20031;-70
2022/12/07 05:17:41;;;;;;;24.75;14.75;;;1.90;99.90;;;;;;2055190;28;20043;-71
2022/12/07 05:18:41;;;;;;;25.98;14.93;;;1.90;99.90;;;;;;2055082;28;20027;-71
2022/12/07 05:19:42;;;;;;;24.23;15.23;;;1.90;99.90;;;;;;2055114;28;20110;-70
2022/12/07 05:20:44;;;;;;;24.75;14.77;;;1.90;99.90;;;;;;2055210;28;20029;-70
2022/12/07 05:21:45;;;;;;;23.58;14.15;;;1.90;99.90;;;;;;2055192;28;20023;-71
2022/12/07 05:22:46;;;;;;;26.27;15.07;;;1.90;99.90;;;;;;2055190;28;20058;-71
2022/12/07 05:23:46;;;;;;;25.70;15.43;;;1.90;99.90;;;;;;2054896;28;20101;-71
2022/12/07 05:24:47;;;;;;;24.15;14.43;;;2.00;99.90;;;;;;2055113;28;20050;-69
2022/12/07 05:25:48;;;;;;;24.20;14.98;;;2.00;99.90;;;;;;2054920;28;20055;-70
2022/12/07 05:26:48;;;;;;;24.15;14.20;;;2.00;99.90;;;;;;2055276;28;20031;-70
2022/12/07 05:27:49;;;;;;;24.00;13.48;;;2.00;99.90;;;;;;2055295;28;20026;-70
2022/12/07 05:28:52;;;;;;;22.95;14.32;;;2.00;99.90;;;;;;2055211;28;20102;-70
2022/12/07 05:29:53;;;;;;;24.30;14.20;;;2.10;99.90;;;;;;2056008;28;20033;-71
2022/12/07 05:30:53;;;;;;;22.30;13.80;;;2.10;99.90;;;;;;2054825;28;20038;-70
2022/12/07 05:31:54;;;;;;;22.48;13.50;;;2.10;99.90;;;;;;2055069;28;20466;-70
2022/12/07 05:32:55;;;;;;;24.77;13.43;;;2.20;99.90;;;;;;2055797;28;20026;-70
2022/12/07 05:33:55;;;;;;;22.20;12.98;;;2.20;99.90;;;;;;2055565;28;20370;-71
2022/12/07 05:34:56;;;;;;;19.55;12.35;;;2.30;99.90;;;;;;2055594;28;20154;-70